Ferry Katsuragi — JI3611 — position and weather

sailwx.info

Track history (hours):
 
Tides and Currents Weather Stations Pressure Air Temp Water Temp Dewpoint Dewpoint Depression Visibility Wind Speed Wind Dir Waves Ship Positions

Ferry Katsuragi

Last reported at 2015-Mar-03 05:25 UTC. Time now 2015-Mar-03 08:58 UTC.
Position N 34°09' E 134°57'.

Length 108 m; draft 4 m.

Type: Passenger vessel. MMSI: 431301245.

Date/timePositionNaut miles runAvg speedWind from/ knotsBaromVisibWave heightAir tempDewpointWater temp
2015-Mar-03 05:25N 34°09' E 134°57'1112.4
2015-Mar-03 04:33N 34°13' E 135°09'6 6.3
2015-Mar-03 03:33N 34°10' E 135°02'5 1.4
2015-Mar-03 00:14N 34°10' E 134°56'1015.3
2015-Mar-02 23:33N 34°13' E 135°08'1 1.5
2015-Mar-02 22:33N 34°13' E 135°06'1615.0
2015-Mar-02 21:28N 34°06' E 134°49'2 0.7
2015-Mar-02 19:05N 34°07' E 134°47'714.1
2015-Mar-02 18:33N 34°09' E 134°55'1212.0
2015-Mar-02 17:33N 34°13' E 135°09'0 0.0
2015-Mar-02 16:33N 34°13' E 135°09'0 0.0
2015-Mar-02 15:33N 34°13' E 135°09'6 6.1
2015-Mar-02 14:33N 34°11' E 135°02'11 3.7
2015-Mar-02 11:29N 34°07' E 134°49'1414.7
2015-Mar-02 10:34N 34°12' E 135°04'4 3.8
2015-Mar-02 09:33N 34°13' E 135°09'20 5.8
2015-Mar-02 06:07N 34°06' E 134°46'914.2
2015-Mar-02 05:28N 34°09' E 134°57'1111.7
2015-Mar-02 04:34N 34°13' E 135°09'6 6.4
2015-Mar-02 03:33N 34°11' E 135°01'4 1.2
2015-Mar-02 00:15N 34°09' E 134°57'1014.6
2015-Mar-01 23:33N 34°13' E 135°08'2 2.0
2015-Mar-01 22:33N 34°13' E 135°06'19 5.7
2015-Mar-01 19:17N 34°05' E 134°45'1013.5
2015-Mar-01 18:33N 34°09' E 134°56'1111.2
2015-Mar-01 17:33N 34°13' E 135°09'0 0.0
2015-Mar-01 16:33N 34°13' E 135°09'0 0.0
2015-Mar-01 15:33N 34°13' E 135°09'7 7.1
2015-Mar-01 14:33N 34°10' E 135°01'6 1.8
2015-Mar-01 11:10N 34°08' E 134°54'1015.9
2015-Mar-01 10:33N 34°12' E 135°05'3 3.3
2015-Mar-01 09:33N 34°13' E 135°09'21 6.2
2015-Mar-01 06:13N 34°05' E 134°46'1013.3
2015-Mar-01 05:30N 34°08' E 134°57'1111.8
2015-Mar-01 04:34N 34°13' E 135°09'6 6.1
2015-Mar-01 03:33N 34°11' E 135°02'10 3.2
2015-Mar-01 00:33N 34°08' E 134°51'1515.2
2015-Feb-28 23:33N 34°13' E 135°08'3 3.0
2015-Feb-28 22:33N 34°12' E 135°04'19 5.9
2015-Feb-28 19:23N 34°05' E 134°43'1113.0
2015-Feb-28 18:33N 34°09' E 134°55'1211.8
2015-Feb-28 17:33N 34°13' E 135°09'0 0.0
2015-Feb-28 16:33N 34°13' E 135°09'0 0.0
2015-Feb-28 15:33N 34°13' E 135°09'7 7.1
2015-Feb-28 14:33N 34°10' E 135°01'11 3.4
2015-Feb-28 11:26N 34°07' E 134°49'1315.2
2015-Feb-28 10:33N 34°12' E 135°04'4 4.3
2015-Feb-28 09:33N 34°13' E 135°09'20 6.0
2015-Feb-28 06:11N 34°06' E 134°46'913.8
2015-Feb-28 05:32N 34°09' E 134°56'1111.7
2015-Feb-28 04:34N 34°13' E 135°09'7 6.5
2015-Feb-28 03:33N 34°11' E 135°01'6 2.0
2015-Feb-28 00:23N 34°08' E 134°54'1215.0
2015-Feb-27 23:33N 34°13' E 135°08'2 1.5
2015-Feb-27 22:33N 34°13' E 135°06'10 2.4
2015-Feb-27 18:32N 34°09' E 134°55'1212.0
2015-Feb-27 17:34N 34°13' E 135°09'0 0.0
2015-Feb-27 16:33N 34°13' E 135°09'0 0.0
2015-Feb-27 15:33N 34°13' E 135°09'6 6.4
2015-Feb-27 14:34N 34°11' E 135°01'12 4.0
2015-Feb-27 11:32N 34°06' E 134°48'1515.0
2015-Feb-27 10:34N 34°12' E 135°04'4 3.7
2015-Feb-27 09:34N 34°13' E 135°08'11 2.6
2015-Feb-27 05:28N 34°09' E 134°57'1112.1
2015-Feb-27 04:33N 34°13' E 135°09'7 6.5
2015-Feb-27 03:33N 34°11' E 135°01'6 1.8
2015-Feb-27 00:21N 34°08' E 134°55'1214.9
2015-Feb-26 23:33N 34°13' E 135°08'2 1.7
2015-Feb-26 22:34N 34°13' E 135°06'10 2.4
2015-Feb-26 18:33N 34°10' E 134°55'1211.6
2015-Feb-26 17:33N 34°13' E 135°09'0 0.0
2015-Feb-26 16:34N 34°13' E 135°09'0 0.0
2015-Feb-26 15:34N 34°13' E 135°09'6 5.9
2015-Feb-26 14:33N 34°12' E 135°02'12 4.1
2015-Feb-26 11:32N 34°07' E 134°48'1414.8
2015-Feb-26 10:34N 34°12' E 135°04'4 3.7
2015-Feb-26 09:34N 34°13' E 135°08'21 6.2
2015-Feb-26 06:15N 34°06' E 134°45'1013.2
2015-Feb-26 05:31N 34°10' E 134°56'1111.4
2015-Feb-26 04:33N 34°13' E 135°09'7 6.8
2015-Feb-26 03:33N 34°11' E 135°01'6 1.8
2015-Feb-26 00:25N 34°09' E 134°54'1214.4
2015-Feb-25 23:33N 34°13' E 135°09'2 2.3
2015-Feb-25 22:33N 34°13' E 135°06'1814.3
2015-Feb-25 21:18N 34°06' E 134°46'9 3.2
2015-Feb-25 18:32N 34°09' E 134°55'1211.8
2015-Feb-25 17:33N 34°13' E 135°09'0 0.0
2015-Feb-25 16:33N 34°13' E 135°09'0 0.0
2015-Feb-25 15:33N 34°13' E 135°09'7 7.1
2015-Feb-25 14:34N 34°11' E 135°00'5 1.4
2015-Feb-25 11:08N 34°09' E 134°55'814.0
2015-Feb-25 10:33N 34°12' E 135°04'3 3.2
2015-Feb-25 09:34N 34°13' E 135°08'9 2.1
2015-Feb-25 05:22N 34°10' E 134°58'911.7
2015-Feb-25 04:34N 34°13' E 135°09'7 6.6
2015-Feb-25 03:33N 34°11' E 135°01'2 0.6
2015-Feb-25 00:06N 34°11' E 134°58'815.1
2015-Feb-24 23:33N 34°13' E 135°08'2 1.7
2015-Feb-24 22:34N 34°13' E 135°06'17 5.1
2015-Feb-24 19:09N 34°07' E 134°46'813.3
2015-Feb-24 18:32N 34°10' E 134°56'1111.7
2015-Feb-24 17:33N 34°13' E 135°09'0 0.0
2015-Feb-24 16:33N 34°13' E 135°09'0 0.0
2015-Feb-24 15:33N 34°13' E 135°09'7 7.3
2015-Feb-24 14:33N 34°10' E 135°01'11 3.5
2015-Feb-24 11:30N 34°06' E 134°49'1415.0
2015-Feb-24 10:33N 34°12' E 135°04'4 3.9
2015-Feb-24 09:33N 34°13' E 135°09'12 3.0
2015-Feb-24 05:33N 34°09' E 134°55'1211.9
2015-Feb-24 04:33N 34°13' E 135°09'7 6.7
2015-Feb-24 03:31N 34°11' E 135°01'5 1.7
2015-Feb-24 00:23N 34°09' E 134°55'1214.4
2015-Feb-23 23:33N 34°13' E 135°08'2 2.3
2015-Feb-23 22:33N 34°13' E 135°06'21 6.5
2015-Feb-23 19:26N 34°05' E 134°43'1213.1
2015-Feb-23 18:31N 34°09' E 134°56'1111.5
2015-Feb-23 17:33N 34°13' E 135°09'0 0.0
2015-Feb-23 16:33N 34°13' E 135°09'0 0.0
2015-Feb-23 15:33N 34°13' E 135°09'7 7.2
2015-Feb-23 14:33N 34°11' E 135°00'10 3.3
2015-Feb-23 11:29N 34°07' E 134°49'1314.4
2015-Feb-23 10:34N 34°12' E 135°04'4 3.6
2015-Feb-23 09:34N 34°13' E 135°08'19 5.6
2015-Feb-23 06:07N 34°06' E 134°46'913.8
2015-Feb-23 05:29N 34°09' E 134°56'1111.8
2015-Feb-23 04:33N 34°13' E 135°09'6 5.5
2015-Feb-23 03:33N 34°11' E 135°02'6 1.7
2015-Feb-23 00:16N 34°09' E 134°56'1014.6
2015-Feb-22 23:34N 34°13' E 135°08'2 1.7
2015-Feb-22 22:33N 34°12' E 135°06'21 6.6
2015-Feb-22 19:23N 34°04' E 134°42'1113.7
2015-Feb-22 18:33N 34°08' E 134°56'1212.1
2015-Feb-22 17:33N 34°13' E 135°09'0 0.0
2015-Feb-22 16:34N 34°13' E 135°09'0 0.0
2015-Feb-22 15:33N 34°13' E 135°09'7 7.0
2015-Feb-22 14:33N 34°10' E 135°01'3 0.8
2015-Feb-22 10:33N 34°12' E 135°04'4 4.2
2015-Feb-22 09:33N 34°13' E 135°09'11 2.7
2015-Feb-22 05:28N 34°09' E 134°56'1112.2
2015-Feb-22 04:33N 34°13' E 135°09'6 6.2
2015-Feb-22 03:33N 34°11' E 135°01'6 1.7
2015-Feb-22 00:20N 34°09' E 134°55'1114.7
2015-Feb-21 23:33N 34°13' E 135°08'2 1.9
2015-Feb-21 22:33N 34°13' E 135°06'19 5.5
2015-Feb-21 19:10N 34°05' E 134°45'1014.2
2015-Feb-21 18:28N 34°09' E 134°56'1112.0
2015-Feb-21 17:33N 34°13' E 135°09'0 0.0
2015-Feb-21 16:33N 34°13' E 135°09'0 0.0
2015-Feb-21 15:34N 34°13' E 135°09'6 6.1
2015-Feb-21 14:34N 34°12' E 135°01'11 3.6
2015-Feb-21 11:26N 34°08' E 134°49'1315.0
2015-Feb-21 10:34N 34°12' E 135°04'4 4.1
2015-Feb-21 09:34N 34°13' E 135°09'19 5.5
2015-Feb-21 06:03N 34°07' E 134°47'814.3
2015-Feb-21 05:31N 34°10' E 134°55'  
Track history (hours):
 
Tides and Currents Weather Stations Pressure Air Temp Water Temp Dewpoint Dewpoint Depression Visibility Wind Speed Wind Dir Waves Ship Positions

Ferry Katsuragi

Last reported at 2015-Mar-03 05:25 UTC. Time now 2015-Mar-03 08:58 UTC.
Position N 34°09' E 134°57'.

Length 108 m; draft 4 m.

Type: Passenger vessel. MMSI: 431301245.

Date/timePositionNaut miles runAvg speedWind from/ knotsBaromVisibWave heightAir tempDewpointWater temp
2015-Mar-03 05:25N 34°09' E 134°57'1112.4
2015-Mar-03 04:33N 34°13' E 135°09'6 6.3
2015-Mar-03 03:33N 34°10' E 135°02'5 1.4
2015-Mar-03 00:14N 34°10' E 134°56'1015.3
2015-Mar-02 23:33N 34°13' E 135°08'1 1.5
2015-Mar-02 22:33N 34°13' E 135°06'1615.0
2015-Mar-02 21:28N 34°06' E 134°49'2 0.7
2015-Mar-02 19:05N 34°07' E 134°47'714.1
2015-Mar-02 18:33N 34°09' E 134°55'1212.0
2015-Mar-02 17:33N 34°13' E 135°09'0 0.0
2015-Mar-02 16:33N 34°13' E 135°09'0 0.0
2015-Mar-02 15:33N 34°13' E 135°09'6 6.1
2015-Mar-02 14:33N 34°11' E 135°02'11 3.7
2015-Mar-02 11:29N 34°07' E 134°49'1414.7
2015-Mar-02 10:34N 34°12' E 135°04'4 3.8
2015-Mar-02 09:33N 34°13' E 135°09'20 5.8
2015-Mar-02 06:07N 34°06' E 134°46'914.2
2015-Mar-02 05:28N 34°09' E 134°57'1111.7
2015-Mar-02 04:34N 34°13' E 135°09'6 6.4
2015-Mar-02 03:33N 34°11' E 135°01'4 1.2
2015-Mar-02 00:15N 34°09' E 134°57'1014.6
2015-Mar-01 23:33N 34°13' E 135°08'2 2.0
2015-Mar-01 22:33N 34°13' E 135°06'19 5.7
2015-Mar-01 19:17N 34°05' E 134°45'1013.5
2015-Mar-01 18:33N 34°09' E 134°56'1111.2
2015-Mar-01 17:33N 34°13' E 135°09'0 0.0
2015-Mar-01 16:33N 34°13' E 135°09'0 0.0
2015-Mar-01 15:33N 34°13' E 135°09'7 7.1
2015-Mar-01 14:33N 34°10' E 135°01'6 1.8
2015-Mar-01 11:10N 34°08' E 134°54'1015.9
2015-Mar-01 10:33N 34°12' E 135°05'3 3.3
2015-Mar-01 09:33N 34°13' E 135°09'21 6.2
2015-Mar-01 06:13N 34°05' E 134°46'1013.3
2015-Mar-01 05:30N 34°08' E 134°57'1111.8
2015-Mar-01 04:34N 34°13' E 135°09'6 6.1
2015-Mar-01 03:33N 34°11' E 135°02'10 3.2
2015-Mar-01 00:33N 34°08' E 134°51'1515.2
2015-Feb-28 23:33N 34°13' E 135°08'3 3.0
2015-Feb-28 22:33N 34°12' E 135°04'19 5.9
2015-Feb-28 19:23N 34°05' E 134°43'1113.0
2015-Feb-28 18:33N 34°09' E 134°55'1211.8
2015-Feb-28 17:33N 34°13' E 135°09'0 0.0
2015-Feb-28 16:33N 34°13' E 135°09'0 0.0
2015-Feb-28 15:33N 34°13' E 135°09'7 7.1
2015-Feb-28 14:33N 34°10' E 135°01'11 3.4
2015-Feb-28 11:26N 34°07' E 134°49'1315.2
2015-Feb-28 10:33N 34°12' E 135°04'4 4.3
2015-Feb-28 09:33N 34°13' E 135°09'20 6.0
2015-Feb-28 06:11N 34°06' E 134°46'913.8
2015-Feb-28 05:32N 34°09' E 134°56'1111.7
2015-Feb-28 04:34N 34°13' E 135°09'7 6.5
2015-Feb-28 03:33N 34°11' E 135°01'6 2.0
2015-Feb-28 00:23N 34°08' E 134°54'1215.0
2015-Feb-27 23:33N 34°13' E 135°08'2 1.5
2015-Feb-27 22:33N 34°13' E 135°06'10 2.4
2015-Feb-27 18:32N 34°09' E 134°55'1212.0
2015-Feb-27 17:34N 34°13' E 135°09'0 0.0
2015-Feb-27 16:33N 34°13' E 135°09'0 0.0
2015-Feb-27 15:33N 34°13' E 135°09'6 6.4
2015-Feb-27 14:34N 34°11' E 135°01'12 4.0
2015-Feb-27 11:32N 34°06' E 134°48'1515.0
2015-Feb-27 10:34N 34°12' E 135°04'4 3.7
2015-Feb-27 09:34N 34°13' E 135°08'11 2.6
2015-Feb-27 05:28N 34°09' E 134°57'1112.1
2015-Feb-27 04:33N 34°13' E 135°09'7 6.5
2015-Feb-27 03:33N 34°11' E 135°01'6 1.8
2015-Feb-27 00:21N 34°08' E 134°55'1214.9
2015-Feb-26 23:33N 34°13' E 135°08'2 1.7
2015-Feb-26 22:34N 34°13' E 135°06'10 2.4
2015-Feb-26 18:33N 34°10' E 134°55'1211.6
2015-Feb-26 17:33N 34°13' E 135°09'0 0.0
2015-Feb-26 16:34N 34°13' E 135°09'0 0.0
2015-Feb-26 15:34N 34°13' E 135°09'6 5.9
2015-Feb-26 14:33N 34°12' E 135°02'12 4.1
2015-Feb-26 11:32N 34°07' E 134°48'1414.8
2015-Feb-26 10:34N 34°12' E 135°04'4 3.7
2015-Feb-26 09:34N 34°13' E 135°08'21 6.2
2015-Feb-26 06:15N 34°06' E 134°45'1013.2
2015-Feb-26 05:31N 34°10' E 134°56'1111.4
2015-Feb-26 04:33N 34°13' E 135°09'7 6.8
2015-Feb-26 03:33N 34°11' E 135°01'6 1.8
2015-Feb-26 00:25N 34°09' E 134°54'1214.4
2015-Feb-25 23:33N 34°13' E 135°09'2 2.3
2015-Feb-25 22:33N 34°13' E 135°06'1814.3
2015-Feb-25 21:18N 34°06' E 134°46'9 3.2
2015-Feb-25 18:32N 34°09' E 134°55'1211.8
2015-Feb-25 17:33N 34°13' E 135°09'0 0.0
2015-Feb-25 16:33N 34°13' E 135°09'0 0.0
2015-Feb-25 15:33N 34°13' E 135°09'7 7.1
2015-Feb-25 14:34N 34°11' E 135°00'5 1.4
2015-Feb-25 11:08N 34°09' E 134°55'814.0
2015-Feb-25 10:33N 34°12' E 135°04'3 3.2
2015-Feb-25 09:34N 34°13' E 135°08'9 2.1
2015-Feb-25 05:22N 34°10' E 134°58'911.7
2015-Feb-25 04:34N 34°13' E 135°09'7 6.6
2015-Feb-25 03:33N 34°11' E 135°01'2 0.6
2015-Feb-25 00:06N 34°11' E 134°58'815.1
2015-Feb-24 23:33N 34°13' E 135°08'2 1.7
2015-Feb-24 22:34N 34°13' E 135°06'17 5.1
2015-Feb-24 19:09N 34°07' E 134°46'813.3
2015-Feb-24 18:32N 34°10' E 134°56'1111.7
2015-Feb-24 17:33N 34°13' E 135°09'0 0.0
2015-Feb-24 16:33N 34°13' E 135°09'0 0.0
2015-Feb-24 15:33N 34°13' E 135°09'7 7.3
2015-Feb-24 14:33N 34°10' E 135°01'11 3.5
2015-Feb-24 11:30N 34°06' E 134°49'1415.0
2015-Feb-24 10:33N 34°12' E 135°04'4 3.9
2015-Feb-24 09:33N 34°13' E 135°09'12 3.0
2015-Feb-24 05:33N 34°09' E 134°55'1211.9
2015-Feb-24 04:33N 34°13' E 135°09'7 6.7
2015-Feb-24 03:31N 34°11' E 135°01'5 1.7
2015-Feb-24 00:23N 34°09' E 134°55'1214.4
2015-Feb-23 23:33N 34°13' E 135°08'2 2.3
2015-Feb-23 22:33N 34°13' E 135°06'21 6.5
2015-Feb-23 19:26N 34°05' E 134°43'1213.1
2015-Feb-23 18:31N 34°09' E 134°56'1111.5
2015-Feb-23 17:33N 34°13' E 135°09'0 0.0
2015-Feb-23 16:33N 34°13' E 135°09'0 0.0
2015-Feb-23 15:33N 34°13' E 135°09'7 7.2
2015-Feb-23 14:33N 34°11' E 135°00'10 3.3
2015-Feb-23 11:29N 34°07' E 134°49'1314.4
2015-Feb-23 10:34N 34°12' E 135°04'4 3.6
2015-Feb-23 09:34N 34°13' E 135°08'19 5.6
2015-Feb-23 06:07N 34°06' E 134°46'913.8
2015-Feb-23 05:29N 34°09' E 134°56'1111.8
2015-Feb-23 04:33N 34°13' E 135°09'6 5.5
2015-Feb-23 03:33N 34°11' E 135°02'6 1.7
2015-Feb-23 00:16N 34°09' E 134°56'1014.6
2015-Feb-22 23:34N 34°13' E 135°08'2 1.7
2015-Feb-22 22:33N 34°12' E 135°06'21 6.6
2015-Feb-22 19:23N 34°04' E 134°42'1113.7
2015-Feb-22 18:33N 34°08' E 134°56'1212.1
2015-Feb-22 17:33N 34°13' E 135°09'0 0.0
2015-Feb-22 16:34N 34°13' E 135°09'0 0.0
2015-Feb-22 15:33N 34°13' E 135°09'7 7.0
2015-Feb-22 14:33N 34°10' E 135°01'3 0.8
2015-Feb-22 10:33N 34°12' E 135°04'4 4.2
2015-Feb-22 09:33N 34°13' E 135°09'11 2.7
2015-Feb-22 05:28N 34°09' E 134°56'1112.2
2015-Feb-22 04:33N 34°13' E 135°09'6 6.2
2015-Feb-22 03:33N 34°11' E 135°01'6 1.7
2015-Feb-22 00:20N 34°09' E 134°55'1114.7
2015-Feb-21 23:33N 34°13' E 135°08'2 1.9
2015-Feb-21 22:33N 34°13' E 135°06'19 5.5
2015-Feb-21 19:10N 34°05' E 134°45'1014.2
2015-Feb-21 18:28N 34°09' E 134°56'1112.0
2015-Feb-21 17:33N 34°13' E 135°09'0 0.0
2015-Feb-21 16:33N 34°13' E 135°09'0 0.0
2015-Feb-21 15:34N 34°13' E 135°09'6 6.1
2015-Feb-21 14:34N 34°12' E 135°01'11 3.6
2015-Feb-21 11:26N 34°08' E 134°49'1315.0
2015-Feb-21 10:34N 34°12' E 135°04'4 4.1
2015-Feb-21 09:34N 34°13' E 135°09'19 5.5
2015-Feb-21 06:03N 34°07' E 134°47'814.3
2015-Feb-21 05:31N 34°10' E 134°55'  

Dump ship's entire track history